Time,TemperatureF,DewpointF,PressureIn,WindDirection,WindDirectionDegrees,WindSpeedMPH,WindSpeedGustMPH,Humidity,HourlyPrecipIn,Conditions,Clouds,dailyrainin,SolarRadiationWatts/m^2,SoftwareType,DateUTC
2013-02-25 00:00:00,71.8,70.6,29.91,WNW,292,2.0,4.0,96,0.00,,---,0.00,0.00,VWS V14.01,2013-02-25 05:00:00,
2013-02-25 00:06:00,71.9,71.0,29.92,West,269,2.0,3.0,96,0.00,,,0.00,0,weatherlink.com 1.10,2013-02-25 05:06:00,
2013-02-25 00:21:00,71.9,71.0,29.91,WSW,254,2.0,4.0,96,0.00,,,0.00,0,weatherlink.com 1.10,2013-02-25 05:21:00,
2013-02-25 00:30:00,71.9,70.7,29.91,WSW,248,2.0,4.0,96,0.00,,---,0.00,0.00,VWS V14.01,2013-02-25 05:30:00,
2013-02-25 00:37:00,72.1,71.0,29.91,WSW,248,1.0,4.0,96,0.00,,,0.00,0,weatherlink.com 1.10,2013-02-25 05:37:00,
2013-02-25 00:52:00,72.1,71.0,29.90,WSW,251,3.0,5.0,96,0.00,,,0.00,0,weatherlink.com 1.10,2013-02-25 05:52:00,
2013-02-25 01:00:00,72.1,70.9,29.90,WSW,248,2.0,5.0,96,0.00,,---,0.00,0.00,VWS V14.01,2013-02-25 06:00:00,
2013-02-25 01:07:00,72.2,71.0,29.90,WSW,238,3.0,6.0,96,0.00,,,0.00,0,weatherlink.com 1.10,2013-02-25 06:07:00,
2013-02-25 01:22:00,72.3,71.0,29.90,WSW,254,4.0,5.0,96,0.00,,,0.00,0,weatherlink.com 1.10,2013-02-25 06:22:00,
2013-02-25 01:30:00,72.4,71.2,29.91,WSW,248,3.0,6.0,96,0.00,,---,0.00,0.00,VWS V14.01,2013-02-25 06:30:00,
2013-02-25 01:37:00,72.4,71.0,29.90,West,264,2.0,4.0,96,0.00,,,0.00,0,weatherlink.com 1.10,2013-02-25 06:37:00,
2013-02-25 01:52:00,72.4,71.0,29.89,West,273,3.0,4.0,96,0.00,,,0.00,0,weatherlink.com 1.10,2013-02-25 06:52:00,
2013-02-25 02:00:00,72.4,71.2,29.89,West,270,3.0,5.0,96,0.00,,---,0.00,0.00,VWS V14.01,2013-02-25 07:00:00,
2013-02-25 02:07:00,72.5,71.0,29.89,WSW,254,3.0,3.0,96,0.00,,,0.00,0,weatherlink.com 1.10,2013-02-25 07:07:00,
2013-02-25 02:22:00,72.5,71.0,29.87,West,272,4.0,4.0,96,0.00,,,0.00,0,weatherlink.com 1.10,2013-02-25 07:22:00,
2013-02-25 02:30:00,72.5,71.3,29.88,West,270,2.0,4.0,96,0.00,,---,0.00,0.00,VWS V14.01,2013-02-25 07:30:00,
2013-02-25 02:37:00,72.5,71.0,29.87,WSW,252,3.0,5.0,96,0.00,,,0.00,0,weatherlink.com 1.10,2013-02-25 07:37:00,
2013-02-25 02:52:00,72.5,71.0,29.87,WSW,252,2.0,5.0,96,0.00,,,0.00,0,weatherlink.com 1.10,2013-02-25 07:52:00,
2013-02-25 03:00:00,72.6,71.4,29.86,WSW,248,3.0,5.0,96,0.00,,---,0.00,0.00,VWS V14.01,2013-02-25 08:00:00,
2013-02-25 03:07:00,72.6,71.0,29.87,West,273,3.0,4.0,96,0.00,,,0.00,0,weatherlink.com 1.10,2013-02-25 08:07:00,
2013-02-25 03:22:00,72.6,71.0,29.86,WNW,283,1.0,5.0,96,0.00,,,0.00,0,weatherlink.com 1.10,2013-02-25 08:22:00,
2013-02-25 03:30:00,72.7,71.2,29.87,WSW,248,2.0,5.0,95,0.00,,---,0.00,0.00,VWS V14.01,2013-02-25 08:30:00,
2013-02-25 03:37:00,72.6,71.0,29.88,WSW,252,2.0,4.0,95,0.00,,,0.00,0,weatherlink.com 1.10,2013-02-25 08:37:00,
2013-02-25 03:52:00,72.8,71.0,29.86,South,184,3.0,4.0,95,0.00,,,0.00,0,weatherlink.com 1.10,2013-02-25 08:52:00,
2013-02-25 04:00:00,72.9,71.4,29.86,WSW,248,2.0,5.0,95,0.00,,---,0.00,0.00,VWS V14.01,2013-02-25 09:00:00,
2013-02-25 04:07:00,73.0,72.0,29.85,SW,225,4.0,4.0,95,0.00,,,0.00,0,weatherlink.com 1.10,2013-02-25 09:07:00,
2013-02-25 04:22:00,73.0,72.0,29.86,SSW,196,3.0,4.0,95,0.00,,,0.00,0,weatherlink.com 1.10,2013-02-25 09:22:00,
2013-02-25 04:37:00,73.0,72.0,29.85,SSW,204,5.0,7.0,95,0.00,,,0.00,0,weatherlink.com 1.10,2013-02-25 09:37:00,
2013-02-25 04:52:00,73.1,71.0,29.86,SW,236,2.0,6.0,94,0.00,,,0.00,0,weatherlink.com 1.10,2013-02-25 09:52:00,
2013-02-25 05:00:00,73.3,71.5,29.85,South,180,4.0,7.0,94,0.00,,---,0.00,0.00,VWS V14.01,2013-02-25 10:00:00,
2013-02-25 05:07:00,73.3,72.0,29.86,WNW,285,3.0,4.0,95,0.00,,,0.00,0,weatherlink.com 1.10,2013-02-25 10:07:00,
2013-02-25 05:22:00,73.3,72.0,29.85,SW,230,5.0,5.0,95,0.00,,,0.00,0,weatherlink.com 1.10,2013-02-25 10:22:00,
2013-02-25 05:30:00,73.2,71.7,29.85,West,270,3.0,5.0,95,0.00,,---,0.00,0.00,VWS V14.01,2013-02-25 10:30:00,
2013-02-25 05:37:00,73.0,72.0,29.85,SW,227,2.0,4.0,95,0.00,,,0.00,0,weatherlink.com 1.10,2013-02-25 10:37:00,
2013-02-25 05:52:00,72.8,72.0,29.86,South,189,3.0,5.0,96,0.00,,,0.00,0,weatherlink.com 1.10,2013-02-25 10:52:00,
2013-02-25 06:00:00,72.8,71.6,29.86,SW,225,3.0,5.0,96,0.00,,---,0.00,0.00,VWS V14.01,2013-02-25 11:00:00,
2013-02-25 06:07:00,72.7,71.0,29.86,South,170,1.0,4.0,95,0.00,,,0.00,0,weatherlink.com 1.10,2013-02-25 11:07:00,
2013-02-25 06:22:00,72.6,71.0,29.86,South,178,1.0,3.0,95,0.00,,,0.00,0,weatherlink.com 1.10,2013-02-25 11:22:00,
2013-02-25 06:30:00,72.8,71.3,29.86,South,180,2.0,4.0,95,0.00,,---,0.00,0.00,VWS V14.01,2013-02-25 11:30:00,
2013-02-25 06:37:00,72.8,71.0,29.85,South,173,1.0,4.0,95,0.00,,,0.00,0,weatherlink.com 1.10,2013-02-25 11:37:00,
2013-02-25 06:52:00,72.8,72.0,29.86,South,180,2.0,4.0,96,0.00,,,0.00,5,weatherlink.com 1.10,2013-02-25 11:52:00,
2013-02-25 07:00:00,72.7,71.5,29.86,South,180,2.0,4.0,96,0.00,,---,0.00,2.00,VWS V14.01,2013-02-25 12:00:00,
2013-02-25 07:07:00,72.7,72.0,29.86,South,169,3.0,5.0,96,0.00,,,0.00,19,weatherlink.com 1.10,2013-02-25 12:07:00,
2013-02-25 07:22:00,72.8,72.0,29.86,SSE,163,4.0,6.0,96,0.00,,,0.00,30,weatherlink.com 1.10,2013-02-25 12:22:00,
2013-02-25 07:37:00,72.8,72.0,29.88,SSE,148,3.0,7.0,96,0.00,,,0.00,114,weatherlink.com 1.10,2013-02-25 12:37:00,
2013-02-25 07:52:00,72.9,71.0,29.89,SW,229,2.0,6.0,95,0.00,,,0.00,127,weatherlink.com 1.10,2013-02-25 12:52:00,
2013-02-25 08:00:00,72.7,71.2,29.89,SE,135,4.0,8.0,95,0.00,,---,0.00,130.00,VWS V14.01,2013-02-25 13:00:00,
2013-02-25 08:07:00,73.1,72.0,29.91,ENE,64,4.0,7.0,95,0.00,,,0.00,185,weatherlink.com 1.10,2013-02-25 13:07:00,
2013-02-25 08:22:00,73.8,71.0,29.90,SE,136,5.0,7.0,92,0.00,,,0.00,278,weatherlink.com 1.10,2013-02-25 13:22:00,
2013-02-25 08:30:00,73.8,71.3,29.89,SE,135,3.0,9.0,92,0.00,,---,0.00,245.00,VWS V14.01,2013-02-25 13:30:00,
2013-02-25 08:37:00,74.3,72.0,29.89,SE,143,5.0,8.0,91,0.00,,,0.00,329,weatherlink.com 1.10,2013-02-25 13:37:00,
2013-02-25 08:52:00,75.5,72.0,29.90,SSW,198,4.0,8.0,88,0.00,,,0.00,144,weatherlink.com 1.10,2013-02-25 13:52:00,
2013-02-25 09:00:00,75.8,72.0,29.90,SE,135,4.0,8.0,88,0.00,,---,0.00,349.00,VWS V14.01,2013-02-25 14:00:00,
2013-02-25 09:07:00,77.4,72.0,29.90,SSE,160,3.0,6.0,83,0.00,,,0.00,438,weatherlink.com 1.10,2013-02-25 14:07:00,
2013-02-25 09:22:00,78.4,71.0,29.90,SSE,157,4.0,7.0,79,0.00,,,0.00,490,weatherlink.com 1.10,2013-02-25 14:22:00,
2013-02-25 09:30:00,79.6,71.4,29.90,SSE,158,3.0,9.0,76,0.00,,---,0.00,461.00,VWS V14.01,2013-02-25 14:30:00,
2013-02-25 09:37:00,81.3,71.0,29.90,NE,51,2.0,5.0,70,0.00,,,0.00,547,weatherlink.com 1.10,2013-02-25 14:37:00,
2013-02-25 09:53:00,82.2,69.0,29.90,ESE,119,4.0,9.0,65,0.00,,,0.00,557,weatherlink.com 1.10,2013-02-25 14:53:00,
2013-02-25 10:00:00,82.1,69.2,29.90,SE,135,4.0,10.0,65,0.00,,---,0.00,559.00,VWS V14.01,2013-02-25 15:00:00,
2013-02-25 10:08:00,83.0,69.0,29.90,SSE,155,7.0,9.0,63,0.00,,,0.00,635,weatherlink.com 1.10,2013-02-25 15:08:00,
2013-02-25 10:23:00,83.3,69.0,29.89,SSE,148,3.0,11.0,62,0.00,,,0.00,673,weatherlink.com 1.10,2013-02-25 15:23:00,
2013-02-25 10:30:00,83.9,68.5,29.89,SSE,158,5.0,11.0,60,0.00,,---,0.00,653.00,VWS V14.01,2013-02-25 15:30:00,
2013-02-25 10:38:00,84.4,68.0,29.89,SSE,156,4.0,8.0,58,0.00,,,0.00,708,weatherlink.com 1.10,2013-02-25 15:38:00,
2013-02-25 10:53:00,84.7,68.0,29.89,ESE,103,4.0,9.0,57,0.00,,,0.00,749,weatherlink.com 1.10,2013-02-25 15:53:00,
2013-02-25 11:00:00,85.6,68.1,29.89,SSE,158,5.0,11.0,56,0.00,,---,0.00,723.00,VWS V14.01,2013-02-25 16:00:00,
2013-02-25 11:08:00,85.1,68.0,29.89,South,178,4.0,11.0,56,0.00,,,0.00,786,weatherlink.com 1.10,2013-02-25 16:08:00,
2013-02-25 11:23:00,83.9,71.0,29.89,ESE,119,4.0,6.0,66,0.00,,,0.00,287,weatherlink.com 1.10,2013-02-25 16:23:00,
2013-02-25 11:30:00,82.7,71.1,29.89,SSE,158,5.0,11.0,68,0.00,,---,0.00,747.00,VWS V14.01,2013-02-25 16:30:00,
2013-02-25 11:38:00,83.4,72.0,29.88,SSE,163,3.0,7.0,68,0.00,,,0.00,851,weatherlink.com 1.10,2013-02-25 16:38:00,
2013-02-25 11:53:00,83.6,72.0,29.87,SSE,161,4.0,7.0,69,0.00,,,0.00,949,weatherlink.com 1.10,2013-02-25 16:53:00,
2013-02-25 12:00:00,83.6,72.4,29.88,SE,135,4.0,8.0,69,0.00,,---,0.00,840.00,VWS V14.01,2013-02-25 17:00:00,
2013-02-25 12:08:00,81.4,72.0,29.88,South,182,5.0,7.0,74,0.00,,,0.00,297,weatherlink.com 1.10,2013-02-25 17:08:00,
2013-02-25 12:23:00,79.8,72.0,29.86,SE,142,5.0,8.0,77,0.00,,,0.00,397,weatherlink.com 1.10,2013-02-25 17:23:00,
2013-02-25 12:30:00,80.2,72.7,29.86,SE,135,5.0,8.0,78,0.00,,---,0.00,349.00,VWS V14.01,2013-02-25 17:30:00,
2013-02-25 12:39:00,81.1,73.0,29.86,ESE,109,10.0,10.0,76,0.00,,,0.00,687,weatherlink.com 1.10,2013-02-25 17:39:00,
2013-02-25 12:53:00,81.1,73.0,29.86,East,90,5.0,9.0,76,0.00,,,0.00,348,weatherlink.com 1.10,2013-02-25 17:53:00,
2013-02-25 13:00:00,80.4,72.5,29.85,SE,135,4.0,10.0,77,0.00,,---,0.00,486.00,VWS V14.01,2013-02-25 18:00:00,
2013-02-25 13:08:00,79.7,73.0,29.86,SE,139,3.0,7.0,79,0.00,,,0.00,218,weatherlink.com 1.10,2013-02-25 18:08:00,
2013-02-25 13:23:00,80.4,73.0,29.85,SE,125,4.0,7.0,79,0.00,,,0.00,679,weatherlink.com 1.10,2013-02-25 18:23:00,
2013-02-25 13:30:00,81.3,73.4,29.85,SE,135,4.0,8.0,77,0.00,,---,0.00,427.00,VWS V14.01,2013-02-25 18:30:00,
2013-02-25 13:38:00,80.2,73.0,29.84,SSE,165,4.0,7.0,79,0.00,,,0.00,272,weatherlink.com 1.10,2013-02-25 18:38:00,
2013-02-25 13:53:00,78.9,73.0,29.83,South,180,6.0,9.0,82,0.00,,,0.00,330,weatherlink.com 1.10,2013-02-25 18:53:00,
2013-02-25 14:00:00,78.7,72.8,29.83,SE,135,5.0,9.0,82,0.00,,---,0.00,316.00,VWS V14.01,2013-02-25 19:00:00,
2013-02-25 14:08:00,77.9,73.0,29.83,SE,142,3.0,8.0,84,0.00,,,0.00,146,weatherlink.com 1.10,2013-02-25 19:08:00,
2013-02-25 14:23:00,77.5,73.0,29.83,ESE,109,4.0,7.0,85,0.00,,,0.00,221,weatherlink.com 1.10,2013-02-25 19:23:00,
2013-02-25 14:30:00,77.9,73.0,29.83,SE,135,4.0,8.0,85,0.00,,---,0.00,177.00,VWS V14.01,2013-02-25 19:30:00,
2013-02-25 14:38:00,78.8,73.0,29.83,SE,137,3.0,7.0,82,0.00,,,0.00,213,weatherlink.com 1.10,2013-02-25 19:38:00,
2013-02-25 14:53:00,77.9,73.0,29.82,SE,137,5.0,7.0,84,0.00,,,0.00,158,weatherlink.com 1.10,2013-02-25 19:53:00,
2013-02-25 15:00:00,77.6,72.7,29.82,SE,135,4.0,10.0,85,0.00,,---,0.00,211.00,VWS V14.01,2013-02-25 20:00:00,
2013-02-25 15:08:00,77.3,73.0,29.82,ESE,108,3.0,9.0,85,0.00,,,0.00,156,weatherlink.com 1.10,2013-02-25 20:08:00,
2013-02-25 15:23:00,77.8,73.0,29.82,SE,135,5.0,8.0,85,0.00,,,0.00,374,weatherlink.com 1.10,2013-02-25 20:23:00,
2013-02-25 15:30:00,78.4,73.2,29.82,SE,135,4.0,9.0,84,0.00,,---,0.00,284.00,VWS V14.01,2013-02-25 20:30:00,
2013-02-25 15:38:00,79.7,73.0,29.82,SSE,155,4.0,7.0,81,0.00,,,0.00,548,weatherlink.com 1.10,2013-02-25 20:38:00,
2013-02-25 15:53:00,79.6,73.0,29.81,SE,132,5.0,9.0,80,0.00,,,0.00,580,weatherlink.com 1.10,2013-02-25 20:53:00,
2013-02-25 16:00:00,79.4,72.7,29.81,SE,135,5.0,9.0,80,0.00,,---,0.00,483.00,VWS V14.01,2013-02-25 21:00:00,
2013-02-25 16:08:00,78.6,72.0,29.81,ESE,111,8.0,8.0,81,0.00,,,0.00,127,weatherlink.com 1.10,2013-02-25 21:08:00,
2013-02-25 16:23:00,78.3,72.0,29.81,ESE,107,4.0,8.0,82,0.00,,,0.00,248,weatherlink.com 1.10,2013-02-25 21:23:00,
2013-02-25 16:30:00,77.7,72.1,29.81,SE,135,5.0,10.0,83,0.00,,---,0.00,273.00,VWS V14.01,2013-02-25 21:30:00,
2013-02-25 16:38:00,77.1,72.0,29.81,East,85,8.0,11.0,84,0.00,,,0.00,120,weatherlink.com 1.10,2013-02-25 21:38:00,
2013-02-25 16:53:00,77.5,73.0,29.80,SSE,160,6.0,12.0,85,0.00,,,0.00,316,weatherlink.com 1.10,2013-02-25 21:53:00,
2013-02-25 17:00:00,77.6,72.7,29.81,SE,135,6.0,12.0,85,0.00,,---,0.00,251.00,VWS V14.01,2013-02-25 22:00:00,
2013-02-25 17:08:00,77.4,73.0,29.80,SE,140,6.0,10.0,85,0.00,,,0.00,206,weatherlink.com 1.10,2013-02-25 22:08:00,
2013-02-25 17:23:00,76.8,72.0,29.80,East,79,6.0,14.0,86,0.00,,,0.00,67,weatherlink.com 1.10,2013-02-25 22:23:00,
2013-02-25 17:30:00,76.6,71.8,29.80,SE,135,6.0,14.0,85,0.00,,---,0.00,169.00,VWS V14.01,2013-02-25 22:30:00,
2013-02-25 17:38:00,77.5,71.0,29.80,SSE,163,11.0,14.0,79,0.00,,,0.00,46,weatherlink.com 1.10,2013-02-25 22:38:00,
2013-02-25 17:53:00,76.8,70.0,29.80,East,101,3.0,11.0,79,0.00,,,0.00,23,weatherlink.com 1.10,2013-02-25 22:53:00,
2013-02-25 18:00:00,76.2,69.9,29.80,SSE,158,6.0,16.0,81,0.00,,---,0.00,49.00,VWS V14.01,2013-02-25 23:00:00,
2013-02-25 18:08:00,75.6,69.0,29.81,SSE,156,4.0,10.0,80,0.00,,,0.00,11,weatherlink.com 1.10,2013-02-25 23:08:00,
2013-02-25 18:23:00,75.7,70.0,29.81,South,182,5.0,7.0,82,0.00,,,0.00,0,weatherlink.com 1.10,2013-02-25 23:23:00,
2013-02-25 18:30:00,75.8,70.6,29.81,SSE,158,4.0,10.0,84,0.00,,---,0.00,7.00,VWS V14.01,2013-02-25 23:30:00,
2013-02-25 18:38:00,75.5,72.0,29.81,SSE,165,3.0,12.0,88,0.00,,,0.00,0,weatherlink.com 1.10,2013-02-25 23:38:00,
2013-02-25 18:53:00,75.2,72.0,29.81,SSE,164,7.0,11.0,88,0.00,,,0.00,0,weatherlink.com 1.10,2013-02-25 23:53:00,
2013-02-25 19:00:00,75.2,71.7,29.81,SSE,158,5.0,12.0,89,0.00,,---,0.00,0.00,VWS V14.01,2013-02-26 00:00:00,
2013-02-25 19:08:00,75.0,72.0,29.81,SSE,153,6.0,9.0,89,0.00,,,0.00,0,weatherlink.com 1.10,2013-02-26 00:08:00,
2013-02-25 19:23:00,74.9,71.0,29.81,SSE,153,3.0,11.0,88,0.00,,,0.00,0,weatherlink.com 1.10,2013-02-26 00:23:00,
2013-02-25 19:30:00,75.0,70.9,29.81,SSE,158,4.0,11.0,87,0.00,,---,0.00,0.00,VWS V14.01,2013-02-26 00:30:00,
2013-02-25 19:38:00,75.2,71.0,29.82,ESE,115,4.0,10.0,86,0.00,,,0.00,0,weatherlink.com 1.10,2013-02-26 00:38:00,
2013-02-25 19:53:00,75.5,71.0,29.82,SE,130,7.0,8.0,85,0.00,,,0.00,0,weatherlink.com 1.10,2013-02-26 00:53:00,
2013-02-25 20:00:00,75.5,71.0,29.82,SSE,158,5.0,10.0,86,0.00,,---,0.00,0.00,VWS V14.01,2013-02-26 01:00:00,
2013-02-25 20:08:00,75.5,71.0,29.82,South,186,5.0,12.0,86,0.00,,,0.00,0,weatherlink.com 1.10,2013-02-26 01:08:00,
2013-02-25 20:23:00,75.3,71.0,29.83,SE,144,6.0,10.0,87,0.00,,,0.00,0,weatherlink.com 1.10,2013-02-26 01:23:00,
2013-02-25 20:30:00,75.2,71.1,29.83,SSE,158,6.0,12.0,87,0.00,,---,0.00,0.00,VWS V14.01,2013-02-26 01:30:00,
2013-02-25 20:38:00,75.1,71.0,29.83,South,173,3.0,7.0,87,0.00,,,0.00,0,weatherlink.com 1.10,2013-02-26 01:38:00,
2013-02-25 20:53:00,74.9,71.0,29.83,SE,136,4.0,8.0,88,0.00,,,0.00,0,weatherlink.com 1.10,2013-02-26 01:53:00,
2013-02-25 21:00:00,74.9,71.1,29.83,South,180,4.0,9.0,88,0.00,,---,0.00,0.00,VWS V14.01,2013-02-26 02:00:00,
2013-02-25 21:08:00,74.9,71.0,29.84,South,175,3.0,9.0,88,0.00,,,0.00,0,weatherlink.com 1.10,2013-02-26 02:08:00,
2013-02-25 21:23:00,74.8,71.0,29.84,SSE,163,4.0,8.0,88,0.00,,,0.00,0,weatherlink.com 1.10,2013-02-26 02:23:00,
2013-02-25 21:30:00,74.8,71.0,29.84,SSE,158,4.0,9.0,88,0.00,,---,0.00,0.00,VWS V14.01,2013-02-26 02:30:00,
2013-02-25 21:38:00,74.8,71.0,29.84,South,184,2.0,9.0,88,0.00,,,0.00,0,weatherlink.com 1.10,2013-02-26 02:38:00,
2013-02-25 21:53:00,74.7,71.0,29.84,SE,146,4.0,10.0,88,0.00,,,0.00,0,weatherlink.com 1.10,2013-02-26 02:53:00,
2013-02-25 22:00:00,74.7,70.9,29.83,South,180,4.0,10.0,88,0.00,,---,0.00,0.00,VWS V14.01,2013-02-26 03:00:00,
2013-02-25 22:08:00,74.7,71.0,29.84,South,177,7.0,9.0,89,0.00,,,0.00,0,weatherlink.com 1.10,2013-02-26 03:08:00,
2013-02-25 22:23:00,74.6,71.0,29.84,South,174,4.0,10.0,89,0.00,,,0.00,0,weatherlink.com 1.10,2013-02-26 03:23:00,
2013-02-25 22:30:00,74.6,71.2,29.84,South,180,4.0,10.0,89,0.00,,---,0.00,0.00,VWS V14.01,2013-02-26 03:30:00,
2013-02-25 22:38:00,74.6,71.0,29.84,South,190,4.0,11.0,89,0.00,,,0.00,0,weatherlink.com 1.10,2013-02-26 03:38:00,
2013-02-25 22:53:00,74.4,71.0,29.83,South,173,6.0,10.0,89,0.00,,,0.00,0,weatherlink.com 1.10,2013-02-26 03:53:00,
2013-02-25 23:00:00,74.4,70.9,29.83,South,180,6.0,11.0,89,0.00,,---,0.00,0.00,VWS V14.01,2013-02-26 04:00:00,
2013-02-25 23:08:00,74.2,71.0,29.83,South,184,6.0,10.0,89,0.00,,,0.00,0,weatherlink.com 1.10,2013-02-26 04:08:00,
2013-02-25 23:23:00,74.0,71.0,29.83,SE,130,3.0,8.0,89,0.00,,,0.00,0,weatherlink.com 1.10,2013-02-26 04:23:00,
2013-02-25 23:30:00,73.9,70.5,29.83,SSE,158,5.0,10.0,89,0.00,,---,0.00,0.00,VWS V14.01,2013-02-26 04:30:00,
2013-02-25 23:38:00,73.9,71.0,29.83,South,186,4.0,7.0,89,0.00,,,0.00,0,weatherlink.com 1.10,2013-02-26 04:38:00,
2013-02-25 23:53:00,73.8,70.0,29.83,South,171,6.0,8.0,89,0.00,,,0.00,0,weatherlink.com 1.10,2013-02-26 04:53:00,